Lady Loren — WDE5677 — position and weather

sailwx.info

Track history (hours):
 
Tides and Currents Weather Stations Pressure Air Temp Water Temp Dewpoint Dewpoint Depression Visibility Wind Speed Wind Dir Waves Ship Positions

Lady Loren

Owner: LA Carriers LLC, Cut Off, LA. More information available from US FCC via Universal Licensing System and Coast Guard Vessel Documentation Center.

Last reported at 2017-Nov-04 09:31 UTC. Time now 2017-Nov-21 17:45 UTC.
Position N 27°25' W 082°54'.
Warning: this ship's position is 17 days out of date.

Length 30 m; draft 3.5 m.

Type: Towing. MMSI: 367370160.

Date/timePositionNaut miles runAvg speedWind from/ knotsBaromVisibWave heightAir tempDewpointWater temp
2017-Nov-04 09:31N 27°25' W 082°54'0 6.8
2017-Nov-04 09:29N 27°25' W 082°53'23 4.5
2017-Nov-04 04:32N 27°42' W 082°37'1 7.6
2017-Nov-04 04:25N 27°43' W 082°37'3 7.6
2017-Nov-04 04:00N 27°46' W 082°37'4 7.1
2017-Nov-04 03:30N 27°49' W 082°34'3 6.4
2017-Nov-04 03:00N 27°52' W 082°33'1 2.9
2017-Nov-04 02:30N 27°53' W 082°32'0 0.0
2017-Nov-04 02:00N 27°53' W 082°32'2 4.4
2017-Nov-04 01:30N 27°51' W 082°34'4 5.9
2017-Nov-04 00:51N 27°47' W 082°33'2 7.0
2017-Nov-04 00:30N 27°47' W 082°31'4 7.3
2017-Nov-03 23:56N 27°49' W 082°26'2 4.1
2017-Nov-03 23:29N 27°48' W 082°24'0 0.2
2017-Nov-03 22:46N 27°48' W 082°24'0 0.0
2017-Nov-03 22:12N 27°48' W 082°24'0 0.0
2017-Nov-03 21:59N 27°48' W 082°24'0 0.2
2017-Nov-03 21:30N 27°48' W 082°24'0 0.0
2017-Nov-03 20:55N 27°48' W 082°24'0 0.0
2017-Nov-03 20:22N 27°48' W 082°24'0 0.0
2017-Nov-03 20:00N 27°48' W 082°24'0 0.0
2017-Nov-03 19:26N 27°48' W 082°24'0 0.2
2017-Nov-03 19:00N 27°48' W 082°24'0 0.2
2017-Nov-03 18:29N 27°48' W 082°24'0 0.0
2017-Nov-03 17:59N 27°48' W 082°24'0 0.1
2017-Nov-03 17:26N 27°48' W 082°24'0 0.1
2017-Nov-03 16:38N 27°48' W 082°24'0 0.0
2017-Nov-03 16:27N 27°48' W 082°24'1 2.2
2017-Nov-03 15:58N 27°48' W 082°25'2 3.8
2017-Nov-03 15:30N 27°50' W 082°27'3 5.5
2017-Nov-03 15:00N 27°52' W 082°27'3 5.5
2017-Nov-03 14:30N 27°55' W 082°27'2 3.5
2017-Nov-03 14:00N 27°57' W 082°27'0 0.0
2017-Nov-03 13:30N 27°57' W 082°27'2 4.8
2017-Nov-03 13:00N 27°55' W 082°26'1 2.8
2017-Nov-03 12:30N 27°56' W 082°26'0 0.0
2017-Nov-03 12:00N 27°56' W 082°26'0 0.0
2017-Nov-03 11:30N 27°56' W 082°26'0 0.0
2017-Nov-03 11:00N 27°56' W 082°26'0 0.0
2017-Nov-03 10:30N 27°56' W 082°26'0 0.0
2017-Nov-03 10:00N 27°56' W 082°26'0 0.0
2017-Nov-03 09:30N 27°56' W 082°26'0 0.0
2017-Nov-03 09:00N 27°56' W 082°26'0 0.0
2017-Nov-03 08:30N 27°56' W 082°26'0 0.0
2017-Nov-03 08:00N 27°56' W 082°26'0 0.0
2017-Nov-03 07:30N 27°56' W 082°26'0 0.0
2017-Nov-03 07:00N 27°56' W 082°26'0 0.0
2017-Nov-03 06:30N 27°56' W 082°26'0 0.0
2017-Nov-03 06:00N 27°56' W 082°26'0 0.0
2017-Nov-03 05:30N 27°56' W 082°26'0 0.0
2017-Nov-03 05:00N 27°56' W 082°26'0 0.0
2017-Nov-03 04:30N 27°56' W 082°26'0 0.0
2017-Nov-03 04:00N 27°56' W 082°26'0 0.0
2017-Nov-03 03:30N 27°56' W 082°26'0 0.0
2017-Nov-03 03:01N 27°56' W 082°26'0 0.0
2017-Nov-03 02:30N 27°56' W 082°26'0 0.0
2017-Nov-03 02:00N 27°56' W 082°26'0 0.0
2017-Nov-03 01:30N 27°56' W 082°26'0 0.0
2017-Nov-03 01:00N 27°56' W 082°26'0 0.0
2017-Nov-03 00:30N 27°56' W 082°26'0 0.0
2017-Nov-03 00:00N 27°56' W 082°26'0 0.0
2017-Nov-02 23:30N 27°56' W 082°26'0 0.0
2017-Nov-02 23:00N 27°56' W 082°26'0 0.0
2017-Nov-02 22:30N 27°56' W 082°26'0 0.0
2017-Nov-02 22:00N 27°56' W 082°26'0 0.0
2017-Nov-02 21:30N 27°56' W 082°26'0 0.0
2017-Nov-02 21:00N 27°56' W 082°26'0 0.0
2017-Nov-02 20:30N 27°56' W 082°26'0 0.0
2017-Nov-02 20:00N 27°56' W 082°26'0 0.0
2017-Nov-02 19:30N 27°56' W 082°26'0 0.0
2017-Nov-02 19:00N 27°56' W 082°26'0 0.0
2017-Nov-02 18:30N 27°56' W 082°26'0 0.0
2017-Nov-02 18:00N 27°56' W 082°26'0 0.0
2017-Nov-02 17:30N 27°56' W 082°26'0 0.0
2017-Nov-02 17:00N 27°56' W 082°26'0 0.0
2017-Nov-02 16:30N 27°56' W 082°26'0 0.0
2017-Nov-02 16:00N 27°56' W 082°26'0 0.0
2017-Nov-02 15:30N 27°56' W 082°26'0 0.0
2017-Nov-02 15:00N 27°56' W 082°26'0 0.0
2017-Nov-02 14:30N 27°56' W 082°26'0 0.0
2017-Nov-02 14:00N 27°56' W 082°26'0 0.0
2017-Nov-02 13:30N 27°56' W 082°26'0 0.0
2017-Nov-02 13:00N 27°56' W 082°26'0 0.0
2017-Nov-02 12:30N 27°56' W 082°26'0 0.0
2017-Nov-02 12:00N 27°56' W 082°26'0 0.0
2017-Nov-02 11:30N 27°56' W 082°26'0 0.0
2017-Nov-02 11:00N 27°56' W 082°26'0 0.0
2017-Nov-02 10:30N 27°56' W 082°26'0 0.0
2017-Nov-02 10:00N 27°56' W 082°26'0 0.0
2017-Nov-02 09:30N 27°56' W 082°26'0 0.0
2017-Nov-02 09:00N 27°56' W 082°26'0 0.0
2017-Nov-02 08:30N 27°56' W 082°26'0 0.0
2017-Nov-02 08:00N 27°56' W 082°26'0 0.0
2017-Nov-02 07:30N 27°56' W 082°26'0 0.0
2017-Nov-02 07:00N 27°56' W 082°26'0 0.0
2017-Nov-02 06:30N 27°56' W 082°26'0 0.0
2017-Nov-02 06:00N 27°56' W 082°26'0 0.0
2017-Nov-02 05:30N 27°56' W 082°26'0 0.0
2017-Nov-02 05:00N 27°56' W 082°26'0 0.0
2017-Nov-02 04:30N 27°56' W 082°26'0 0.0
2017-Nov-02 04:00N 27°56' W 082°26'0 0.0
2017-Nov-02 03:30N 27°56' W 082°26'0 0.0
2017-Nov-02 03:00N 27°56' W 082°26'0 0.0
2017-Nov-02 02:30N 27°56' W 082°26'0 0.0
2017-Nov-02 02:00N 27°56' W 082°26'0 0.0
2017-Nov-02 01:30N 27°56' W 082°26'0 0.0
2017-Nov-02 01:00N 27°56' W 082°26'0 0.0
2017-Nov-02 00:30N 27°56' W 082°26'0 0.0
2017-Nov-02 00:00N 27°56' W 082°26'0 0.0
2017-Nov-01 23:30N 27°56' W 082°26'1 1.3
2017-Nov-01 23:00N 27°55' W 082°26'1 2.5
2017-Nov-01 22:30N 27°54' W 082°26'4 8.0
2017-Nov-01 22:00N 27°50' W 082°27'3 5.5
2017-Nov-01 21:28N 27°48' W 082°24'0 0.0
2017-Nov-01 01:59N 27°48' W 082°24'0 0.0
2017-Nov-01 01:12N 27°48' W 082°24'0 0.0
2017-Nov-01 00:49N 27°48' W 082°24'0 0.0
2017-Nov-01 00:30N 27°48' W 082°24'0 0.0
2017-Oct-31 23:50N 27°48' W 082°24'0 0.0
2017-Oct-31 21:53N 27°48' W 082°24'2 4.0
2017-Oct-31 21:25N 27°49' W 082°26'2 5.2
2017-Oct-31 21:00N 27°51' W 082°26'1 1.3
2017-Oct-31 20:30N 27°51' W 082°27'3 3.4
2017-Oct-31 19:39N 27°48' W 082°24'0 1.9
2017-Oct-31 19:29N 27°48' W 082°24'0 0.2
2017-Oct-31 18:42N 27°48' W 082°24'0 0.0
2017-Oct-31 18:25N 27°48' W 082°24'3 6.2
2017-Oct-31 17:59N 27°49' W 082°27'2 4.2
2017-Oct-31 17:30N 27°51' W 082°26'0 0.0
2017-Oct-31 17:00N 27°51' W 082°26'0 0.0
2017-Oct-31 16:30N 27°51' W 082°26'0 0.0
2017-Oct-31 16:00N 27°51' W 082°26'0 0.0
2017-Oct-31 15:30N 27°51' W 082°26'0 0.0
2017-Oct-31 15:00N 27°51' W 082°26'0 0.0
2017-Oct-31 14:30N 27°51' W 082°26'0 0.0
2017-Oct-31 14:00N 27°51' W 082°26'1 1.9
2017-Oct-31 13:30N 27°52' W 082°27'3 5.6
2017-Oct-31 13:00N 27°54' W 082°26'2 4.8
2017-Oct-31 12:30N 27°52' W 082°27'3 6.7
2017-Oct-31 12:00N 27°49' W 082°26'2 3.2
2017-Oct-31 11:22N 27°48' W 082°24'0 0.0
2017-Oct-31 10:59N 27°48' W 082°24'0 0.0
2017-Oct-31 10:30N 27°48' W 082°24'0 0.0
2017-Oct-31 09:43N 27°48' W 082°24'0 0.2
2017-Oct-31 09:30N 27°48' W 082°24'3 5.9
2017-Oct-31 09:00N 27°49' W 082°27'4 7.8
2017-Oct-31 08:30N 27°47' W 082°31'4 7.6
2017-Oct-31 08:00N 27°43' W 082°32'8 7.4
2017-Oct-31 06:57N 27°38' W 082°38'  
2017-Oct-26 14:18N 29°35' W 090°23'2 6.5
2017-Oct-26 14:00N 29°33' W 090°24'0 0.4
2017-Oct-26 13:27N 29°33' W 090°24'0 0.0
2017-Oct-26 12:57N 29°33' W 090°24'4 3.1
2017-Oct-26 11:45N 29°33' W 090°28'1 3.6
2017-Oct-26 11:28N 29°34' W 090°29'2 3.5
2017-Oct-26 11:00N 29°34' W 090°31'1 1.6
2017-Oct-26 10:30N 29°34' W 090°32'2 3.2
2017-Oct-26 10:00N 29°34' W 090°34'2 3.6
2017-Oct-26 09:30N 29°35' W 090°36'2 3.3
2017-Oct-26 09:00N 29°35' W 090°38'2 3.5
2017-Oct-26 08:30N 29°36' W 090°39'2 4.0
2017-Oct-26 08:00N 29°37' W 090°41'1 2.3
2017-Oct-26 07:30N 29°36' W 090°43'2 3.0
2017-Oct-26 07:00N 29°35' W 090°43'1 2.4
2017-Oct-26 06:30N 29°34' W 090°44'0 0.8
2017-Oct-26 06:00N 29°34' W 090°45'1 2.8
2017-Oct-26 05:30N 29°33' W 090°46'2 3.7
2017-Oct-26 05:00N 29°32' W 090°48'2 4.2
2017-Oct-26 04:30N 29°32' W 090°50'2 3.9
2017-Oct-26 03:59N 29°32' W 090°52'2 4.0
2017-Oct-26 03:30N 29°33' W 090°54'2 3.8
2017-Oct-26 03:00N 29°34' W 090°56'2 3.5
2017-Oct-26 02:21N 29°36' W 090°58'1 3.6
2017-Oct-26 01:58N 29°37' W 090°59'  
Track history (hours):
 
Tides and Currents Weather Stations Pressure Air Temp Water Temp Dewpoint Dewpoint Depression Visibility Wind Speed Wind Dir Waves Ship Positions

Lady Loren

Owner: LA Carriers LLC, Cut Off, LA. More information available from US FCC via Universal Licensing System and Coast Guard Vessel Documentation Center.

Last reported at 2017-Nov-04 09:31 UTC. Time now 2017-Nov-21 17:45 UTC.
Position N 27°25' W 082°54'.
Warning: this ship's position is 17 days out of date.

Length 30 m; draft 3.5 m.

Type: Towing. MMSI: 367370160.

Date/timePositionNaut miles runAvg speedWind from/ knotsBaromVisibWave heightAir tempDewpointWater temp
2017-Nov-04 09:31N 27°25' W 082°54'0 6.8
2017-Nov-04 09:29N 27°25' W 082°53'23 4.5
2017-Nov-04 04:32N 27°42' W 082°37'1 7.6
2017-Nov-04 04:25N 27°43' W 082°37'3 7.6
2017-Nov-04 04:00N 27°46' W 082°37'4 7.1
2017-Nov-04 03:30N 27°49' W 082°34'3 6.4
2017-Nov-04 03:00N 27°52' W 082°33'1 2.9
2017-Nov-04 02:30N 27°53' W 082°32'0 0.0
2017-Nov-04 02:00N 27°53' W 082°32'2 4.4
2017-Nov-04 01:30N 27°51' W 082°34'4 5.9
2017-Nov-04 00:51N 27°47' W 082°33'2 7.0
2017-Nov-04 00:30N 27°47' W 082°31'4 7.3
2017-Nov-03 23:56N 27°49' W 082°26'2 4.1
2017-Nov-03 23:29N 27°48' W 082°24'0 0.2
2017-Nov-03 22:46N 27°48' W 082°24'0 0.0
2017-Nov-03 22:12N 27°48' W 082°24'0 0.0
2017-Nov-03 21:59N 27°48' W 082°24'0 0.2
2017-Nov-03 21:30N 27°48' W 082°24'0 0.0
2017-Nov-03 20:55N 27°48' W 082°24'0 0.0
2017-Nov-03 20:22N 27°48' W 082°24'0 0.0
2017-Nov-03 20:00N 27°48' W 082°24'0 0.0
2017-Nov-03 19:26N 27°48' W 082°24'0 0.2
2017-Nov-03 19:00N 27°48' W 082°24'0 0.2
2017-Nov-03 18:29N 27°48' W 082°24'0 0.0
2017-Nov-03 17:59N 27°48' W 082°24'0 0.1
2017-Nov-03 17:26N 27°48' W 082°24'0 0.1
2017-Nov-03 16:38N 27°48' W 082°24'0 0.0
2017-Nov-03 16:27N 27°48' W 082°24'1 2.2
2017-Nov-03 15:58N 27°48' W 082°25'2 3.8
2017-Nov-03 15:30N 27°50' W 082°27'3 5.5
2017-Nov-03 15:00N 27°52' W 082°27'3 5.5
2017-Nov-03 14:30N 27°55' W 082°27'2 3.5
2017-Nov-03 14:00N 27°57' W 082°27'0 0.0
2017-Nov-03 13:30N 27°57' W 082°27'2 4.8
2017-Nov-03 13:00N 27°55' W 082°26'1 2.8
2017-Nov-03 12:30N 27°56' W 082°26'0 0.0
2017-Nov-03 12:00N 27°56' W 082°26'0 0.0
2017-Nov-03 11:30N 27°56' W 082°26'0 0.0
2017-Nov-03 11:00N 27°56' W 082°26'0 0.0
2017-Nov-03 10:30N 27°56' W 082°26'0 0.0
2017-Nov-03 10:00N 27°56' W 082°26'0 0.0
2017-Nov-03 09:30N 27°56' W 082°26'0 0.0
2017-Nov-03 09:00N 27°56' W 082°26'0 0.0
2017-Nov-03 08:30N 27°56' W 082°26'0 0.0
2017-Nov-03 08:00N 27°56' W 082°26'0 0.0
2017-Nov-03 07:30N 27°56' W 082°26'0 0.0
2017-Nov-03 07:00N 27°56' W 082°26'0 0.0
2017-Nov-03 06:30N 27°56' W 082°26'0 0.0
2017-Nov-03 06:00N 27°56' W 082°26'0 0.0
2017-Nov-03 05:30N 27°56' W 082°26'0 0.0
2017-Nov-03 05:00N 27°56' W 082°26'0 0.0
2017-Nov-03 04:30N 27°56' W 082°26'0 0.0
2017-Nov-03 04:00N 27°56' W 082°26'0 0.0
2017-Nov-03 03:30N 27°56' W 082°26'0 0.0
2017-Nov-03 03:01N 27°56' W 082°26'0 0.0
2017-Nov-03 02:30N 27°56' W 082°26'0 0.0
2017-Nov-03 02:00N 27°56' W 082°26'0 0.0
2017-Nov-03 01:30N 27°56' W 082°26'0 0.0
2017-Nov-03 01:00N 27°56' W 082°26'0 0.0
2017-Nov-03 00:30N 27°56' W 082°26'0 0.0
2017-Nov-03 00:00N 27°56' W 082°26'0 0.0
2017-Nov-02 23:30N 27°56' W 082°26'0 0.0
2017-Nov-02 23:00N 27°56' W 082°26'0 0.0
2017-Nov-02 22:30N 27°56' W 082°26'0 0.0
2017-Nov-02 22:00N 27°56' W 082°26'0 0.0
2017-Nov-02 21:30N 27°56' W 082°26'0 0.0
2017-Nov-02 21:00N 27°56' W 082°26'0 0.0
2017-Nov-02 20:30N 27°56' W 082°26'0 0.0
2017-Nov-02 20:00N 27°56' W 082°26'0 0.0
2017-Nov-02 19:30N 27°56' W 082°26'0 0.0
2017-Nov-02 19:00N 27°56' W 082°26'0 0.0
2017-Nov-02 18:30N 27°56' W 082°26'0 0.0
2017-Nov-02 18:00N 27°56' W 082°26'0 0.0
2017-Nov-02 17:30N 27°56' W 082°26'0 0.0
2017-Nov-02 17:00N 27°56' W 082°26'0 0.0
2017-Nov-02 16:30N 27°56' W 082°26'0 0.0
2017-Nov-02 16:00N 27°56' W 082°26'0 0.0
2017-Nov-02 15:30N 27°56' W 082°26'0 0.0
2017-Nov-02 15:00N 27°56' W 082°26'0 0.0
2017-Nov-02 14:30N 27°56' W 082°26'0 0.0
2017-Nov-02 14:00N 27°56' W 082°26'0 0.0
2017-Nov-02 13:30N 27°56' W 082°26'0 0.0
2017-Nov-02 13:00N 27°56' W 082°26'0 0.0
2017-Nov-02 12:30N 27°56' W 082°26'0 0.0
2017-Nov-02 12:00N 27°56' W 082°26'0 0.0
2017-Nov-02 11:30N 27°56' W 082°26'0 0.0
2017-Nov-02 11:00N 27°56' W 082°26'0 0.0
2017-Nov-02 10:30N 27°56' W 082°26'0 0.0
2017-Nov-02 10:00N 27°56' W 082°26'0 0.0
2017-Nov-02 09:30N 27°56' W 082°26'0 0.0
2017-Nov-02 09:00N 27°56' W 082°26'0 0.0
2017-Nov-02 08:30N 27°56' W 082°26'0 0.0
2017-Nov-02 08:00N 27°56' W 082°26'0 0.0
2017-Nov-02 07:30N 27°56' W 082°26'0 0.0
2017-Nov-02 07:00N 27°56' W 082°26'0 0.0
2017-Nov-02 06:30N 27°56' W 082°26'0 0.0
2017-Nov-02 06:00N 27°56' W 082°26'0 0.0
2017-Nov-02 05:30N 27°56' W 082°26'0 0.0
2017-Nov-02 05:00N 27°56' W 082°26'0 0.0
2017-Nov-02 04:30N 27°56' W 082°26'0 0.0
2017-Nov-02 04:00N 27°56' W 082°26'0 0.0
2017-Nov-02 03:30N 27°56' W 082°26'0 0.0
2017-Nov-02 03:00N 27°56' W 082°26'0 0.0
2017-Nov-02 02:30N 27°56' W 082°26'0 0.0
2017-Nov-02 02:00N 27°56' W 082°26'0 0.0
2017-Nov-02 01:30N 27°56' W 082°26'0 0.0
2017-Nov-02 01:00N 27°56' W 082°26'0 0.0
2017-Nov-02 00:30N 27°56' W 082°26'0 0.0
2017-Nov-02 00:00N 27°56' W 082°26'0 0.0
2017-Nov-01 23:30N 27°56' W 082°26'1 1.3
2017-Nov-01 23:00N 27°55' W 082°26'1 2.5
2017-Nov-01 22:30N 27°54' W 082°26'4 8.0
2017-Nov-01 22:00N 27°50' W 082°27'3 5.5
2017-Nov-01 21:28N 27°48' W 082°24'0 0.0
2017-Nov-01 01:59N 27°48' W 082°24'0 0.0
2017-Nov-01 01:12N 27°48' W 082°24'0 0.0
2017-Nov-01 00:49N 27°48' W 082°24'0 0.0
2017-Nov-01 00:30N 27°48' W 082°24'0 0.0
2017-Oct-31 23:50N 27°48' W 082°24'0 0.0
2017-Oct-31 21:53N 27°48' W 082°24'2 4.0
2017-Oct-31 21:25N 27°49' W 082°26'2 5.2
2017-Oct-31 21:00N 27°51' W 082°26'1 1.3
2017-Oct-31 20:30N 27°51' W 082°27'3 3.4
2017-Oct-31 19:39N 27°48' W 082°24'0 1.9
2017-Oct-31 19:29N 27°48' W 082°24'0 0.2
2017-Oct-31 18:42N 27°48' W 082°24'0 0.0
2017-Oct-31 18:25N 27°48' W 082°24'3 6.2
2017-Oct-31 17:59N 27°49' W 082°27'2 4.2
2017-Oct-31 17:30N 27°51' W 082°26'0 0.0
2017-Oct-31 17:00N 27°51' W 082°26'0 0.0
2017-Oct-31 16:30N 27°51' W 082°26'0 0.0
2017-Oct-31 16:00N 27°51' W 082°26'0 0.0
2017-Oct-31 15:30N 27°51' W 082°26'0 0.0
2017-Oct-31 15:00N 27°51' W 082°26'0 0.0
2017-Oct-31 14:30N 27°51' W 082°26'0 0.0
2017-Oct-31 14:00N 27°51' W 082°26'1 1.9
2017-Oct-31 13:30N 27°52' W 082°27'3 5.6
2017-Oct-31 13:00N 27°54' W 082°26'2 4.8
2017-Oct-31 12:30N 27°52' W 082°27'3 6.7
2017-Oct-31 12:00N 27°49' W 082°26'2 3.2
2017-Oct-31 11:22N 27°48' W 082°24'0 0.0
2017-Oct-31 10:59N 27°48' W 082°24'0 0.0
2017-Oct-31 10:30N 27°48' W 082°24'0 0.0
2017-Oct-31 09:43N 27°48' W 082°24'0 0.2
2017-Oct-31 09:30N 27°48' W 082°24'3 5.9
2017-Oct-31 09:00N 27°49' W 082°27'4 7.8
2017-Oct-31 08:30N 27°47' W 082°31'4 7.6
2017-Oct-31 08:00N 27°43' W 082°32'8 7.4
2017-Oct-31 06:57N 27°38' W 082°38'  
2017-Oct-26 14:18N 29°35' W 090°23'2 6.5
2017-Oct-26 14:00N 29°33' W 090°24'0 0.4
2017-Oct-26 13:27N 29°33' W 090°24'0 0.0
2017-Oct-26 12:57N 29°33' W 090°24'4 3.1
2017-Oct-26 11:45N 29°33' W 090°28'1 3.6
2017-Oct-26 11:28N 29°34' W 090°29'2 3.5
2017-Oct-26 11:00N 29°34' W 090°31'1 1.6
2017-Oct-26 10:30N 29°34' W 090°32'2 3.2
2017-Oct-26 10:00N 29°34' W 090°34'2 3.6
2017-Oct-26 09:30N 29°35' W 090°36'2 3.3
2017-Oct-26 09:00N 29°35' W 090°38'2 3.5
2017-Oct-26 08:30N 29°36' W 090°39'2 4.0
2017-Oct-26 08:00N 29°37' W 090°41'1 2.3
2017-Oct-26 07:30N 29°36' W 090°43'2 3.0
2017-Oct-26 07:00N 29°35' W 090°43'1 2.4
2017-Oct-26 06:30N 29°34' W 090°44'0 0.8
2017-Oct-26 06:00N 29°34' W 090°45'1 2.8
2017-Oct-26 05:30N 29°33' W 090°46'2 3.7
2017-Oct-26 05:00N 29°32' W 090°48'2 4.2
2017-Oct-26 04:30N 29°32' W 090°50'2 3.9
2017-Oct-26 03:59N 29°32' W 090°52'2 4.0
2017-Oct-26 03:30N 29°33' W 090°54'2 3.8
2017-Oct-26 03:00N 29°34' W 090°56'2 3.5
2017-Oct-26 02:21N 29°36' W 090°58'1 3.6
2017-Oct-26 01:58N 29°37' W 090°59'  

Dump ship's entire track history